sensor_id;sensor_type;location;lat;lon;timestamp;P1;durP1;ratioP1;P2;durP2;ratioP2
65936;SDS011;52707;52.086;5.418;2023-08-31T00:01:16;8.52;;;3.22;;
65936;SDS011;52707;52.086;5.418;2023-08-31T00:03:42;9.13;;;3.70;;
65936;SDS011;52707;52.086;5.418;2023-08-31T00:06:10;5.85;;;2.85;;
65936;SDS011;52707;52.086;5.418;2023-08-31T00:08:37;6.35;;;2.97;;
65936;SDS011;52707;52.086;5.418;2023-08-31T00:11:03;6.47;;;3.08;;
65936;SDS011;52707;52.086;5.418;2023-08-31T00:13:29;11.82;;;3.45;;
65936;SDS011;52707;52.086;5.418;2023-08-31T00:15:56;6.32;;;3.00;;
65936;SDS011;52707;52.086;5.418;2023-08-31T00:18:26;3.93;;;2.93;;
65936;SDS011;52707;52.086;5.418;2023-08-31T00:20:52;8.52;;;3.42;;
65936;SDS011;52707;52.086;5.418;2023-08-31T00:23:19;4.75;;;3.13;;
65936;SDS011;52707;52.086;5.418;2023-08-31T00:25:46;5.15;;;3.00;;
65936;SDS011;52707;52.086;5.418;2023-08-31T00:28:14;7.63;;;3.70;;
65936;SDS011;52707;52.086;5.418;2023-08-31T00:30:42;11.95;;;3.13;;
65936;SDS011;52707;52.086;5.418;2023-08-31T00:33:11;5.85;;;3.38;;
65936;SDS011;52707;52.086;5.418;2023-08-31T00:35:38;7.40;;;3.70;;
65936;SDS011;52707;52.086;5.418;2023-08-31T00:40:38;6.78;;;3.47;;
65936;SDS011;52707;52.086;5.418;2023-08-31T00:43:07;12.85;;;3.75;;
65936;SDS011;52707;52.086;5.418;2023-08-31T00:45:33;6.80;;;4.05;;
65936;SDS011;52707;52.086;5.418;2023-08-31T00:48:00;11.73;;;4.88;;
65936;SDS011;52707;52.086;5.418;2023-08-31T00:50:27;9.25;;;4.50;;
65936;SDS011;52707;52.086;5.418;2023-08-31T00:52:53;12.60;;;4.72;;
65936;SDS011;52707;52.086;5.418;2023-08-31T00:55:20;10.23;;;4.70;;
65936;SDS011;52707;52.086;5.418;2023-08-31T00:57:46;12.60;;;4.75;;
65936;SDS011;52707;52.086;5.418;2023-08-31T01:00:13;8.00;;;4.82;;
65936;SDS011;52707;52.086;5.418;2023-08-31T01:02:44;10.57;;;5.35;;
65936;SDS011;52707;52.086;5.418;2023-08-31T01:07:59;14.55;;;5.68;;
65936;SDS011;52707;52.086;5.418;2023-08-31T01:10:35;11.52;;;5.85;;
65936;SDS011;52707;52.086;5.418;2023-08-31T01:13:06;11.32;;;6.10;;
65936;SDS011;52707;52.086;5.418;2023-08-31T01:15:38;10.88;;;6.38;;
65936;SDS011;52707;52.086;5.418;2023-08-31T01:18:06;11.38;;;6.38;;
65936;SDS011;52707;52.086;5.418;2023-08-31T01:20:37;15.02;;;7.57;;
65936;SDS011;52707;52.086;5.418;2023-08-31T01:23:10;8.00;;;5.87;;
65936;SDS011;52707;52.086;5.418;2023-08-31T01:25:37;11.88;;;7.38;;
65936;SDS011;52707;52.086;5.418;2023-08-31T01:28:04;20.25;;;8.23;;
65936;SDS011;52707;52.086;5.418;2023-08-31T01:30:31;11.55;;;7.03;;
65936;SDS011;52707;52.086;5.418;2023-08-31T01:32:58;11.77;;;7.45;;
65936;SDS011;52707;52.086;5.418;2023-08-31T01:35:24;13.32;;;7.90;;
65936;SDS011;52707;52.086;5.418;2023-08-31T01:37:56;19.17;;;8.43;;
65936;SDS011;52707;52.086;5.418;2023-08-31T01:40:47;13.75;;;8.45;;
65936;SDS011;52707;52.086;5.418;2023-08-31T01:43:11;19.05;;;9.18;;
65936;SDS011;52707;52.086;5.418;2023-08-31T01:45:38;17.95;;;9.90;;
65936;SDS011;52707;52.086;5.418;2023-08-31T01:48:05;16.65;;;8.82;;
65936;SDS011;52707;52.086;5.418;2023-08-31T01:50:32;20.33;;;9.73;;
65936;SDS011;52707;52.086;5.418;2023-08-31T01:52:58;15.13;;;9.45;;
65936;SDS011;52707;52.086;5.418;2023-08-31T01:55:24;17.98;;;10.23;;
65936;SDS011;52707;52.086;5.418;2023-08-31T01:57:51;16.05;;;9.15;;
65936;SDS011;52707;52.086;5.418;2023-08-31T02:00:18;17.80;;;10.13;;
65936;SDS011;52707;52.086;5.418;2023-08-31T02:02:44;17.25;;;9.55;;
65936;SDS011;52707;52.086;5.418;2023-08-31T02:05:11;19.23;;;9.80;;
65936;SDS011;52707;52.086;5.418;2023-08-31T02:07:37;17.88;;;9.13;;
65936;SDS011;52707;52.086;5.418;2023-08-31T02:10:04;20.13;;;9.60;;
65936;SDS011;52707;52.086;5.418;2023-08-31T02:12:33;15.25;;;9.68;;
65936;SDS011;52707;52.086;5.418;2023-08-31T02:14:59;16.83;;;10.25;;
65936;SDS011;52707;52.086;5.418;2023-08-31T02:17:26;20.30;;;10.10;;
65936;SDS011;52707;52.086;5.418;2023-08-31T02:19:52;12.32;;;8.10;;
65936;SDS011;52707;52.086;5.418;2023-08-31T02:22:19;22.30;;;8.38;;
65936;SDS011;52707;52.086;5.418;2023-08-31T02:24:45;14.43;;;7.85;;
65936;SDS011;52707;52.086;5.418;2023-08-31T02:27:12;15.88;;;8.57;;
65936;SDS011;52707;52.086;5.418;2023-08-31T02:29:39;16.77;;;7.78;;
65936;SDS011;52707;52.086;5.418;2023-08-31T02:32:05;14.77;;;8.32;;
65936;SDS011;52707;52.086;5.418;2023-08-31T02:34:31;14.23;;;8.20;;
65936;SDS011;52707;52.086;5.418;2023-08-31T02:36:58;17.40;;;8.15;;
65936;SDS011;52707;52.086;5.418;2023-08-31T02:39:24;11.30;;;7.88;;
65936;SDS011;52707;52.086;5.418;2023-08-31T02:41:51;12.45;;;7.88;;
65936;SDS011;52707;52.086;5.418;2023-08-31T02:44:17;14.85;;;7.47;;
65936;SDS011;52707;52.086;5.418;2023-08-31T02:46:45;15.13;;;7.75;;
65936;SDS011;52707;52.086;5.418;2023-08-31T02:49:11;14.38;;;7.15;;
65936;SDS011;52707;52.086;5.418;2023-08-31T02:51:38;14.10;;;7.22;;
65936;SDS011;52707;52.086;5.418;2023-08-31T02:54:04;19.80;;;7.47;;
65936;SDS011;52707;52.086;5.418;2023-08-31T02:56:31;12.02;;;7.07;;
65936;SDS011;52707;52.086;5.418;2023-08-31T02:58:57;9.93;;;7.18;;
65936;SDS011;52707;52.086;5.418;2023-08-31T03:01:23;12.02;;;6.32;;
65936;SDS011;52707;52.086;5.418;2023-08-31T03:03:50;13.68;;;6.53;;
65936;SDS011;52707;52.086;5.418;2023-08-31T03:06:16;8.18;;;5.50;;
65936;SDS011;52707;52.086;5.418;2023-08-31T03:08:43;11.93;;;5.60;;
65936;SDS011;52707;52.086;5.418;2023-08-31T03:11:09;8.48;;;4.82;;
65936;SDS011;52707;52.086;5.418;2023-08-31T03:13:36;10.75;;;5.45;;
65936;SDS011;52707;52.086;5.418;2023-08-31T03:16:02;8.27;;;4.68;;
65936;SDS011;52707;52.086;5.418;2023-08-31T03:18:29;13.02;;;4.30;;
65936;SDS011;52707;52.086;5.418;2023-08-31T03:20:55;11.23;;;4.00;;
65936;SDS011;52707;52.086;5.418;2023-08-31T03:23:22;7.38;;;3.70;;
65936;SDS011;52707;52.086;5.418;2023-08-31T03:25:48;6.38;;;3.60;;
65936;SDS011;52707;52.086;5.418;2023-08-31T03:28:14;5.68;;;3.28;;
65936;SDS011;52707;52.086;5.418;2023-08-31T03:30:41;5.10;;;4.00;;
65936;SDS011;52707;52.086;5.418;2023-08-31T03:33:07;5.38;;;3.47;;
65936;SDS011;52707;52.086;5.418;2023-08-31T03:35:35;6.60;;;4.05;;
65936;SDS011;52707;52.086;5.418;2023-08-31T03:38:01;10.15;;;4.45;;
65936;SDS011;52707;52.086;5.418;2023-08-31T03:40:27;4.90;;;3.28;;
65936;SDS011;52707;52.086;5.418;2023-08-31T03:42:54;10.57;;;4.13;;
65936;SDS011;52707;52.086;5.418;2023-08-31T03:45:20;5.47;;;3.58;;
65936;SDS011;52707;52.086;5.418;2023-08-31T03:47:47;5.70;;;3.53;;
65936;SDS011;52707;52.086;5.418;2023-08-31T03:50:13;5.00;;;3.58;;
65936;SDS011;52707;52.086;5.418;2023-08-31T03:52:40;7.82;;;3.38;;
65936;SDS011;52707;52.086;5.418;2023-08-31T03:55:06;9.10;;;3.90;;
65936;SDS011;52707;52.086;5.418;2023-08-31T03:57:32;9.25;;;3.92;;
65936;SDS011;52707;52.086;5.418;2023-08-31T03:59:59;7.10;;;3.97;;
65936;SDS011;52707;52.086;5.418;2023-08-31T04:02:25;7.90;;;3.85;;
65936;SDS011;52707;52.086;5.418;2023-08-31T04:04:52;6.05;;;3.95;;
65936;SDS011;52707;52.086;5.418;2023-08-31T04:07:18;11.25;;;4.03;;
65936;SDS011;52707;52.086;5.418;2023-08-31T04:09:44;10.10;;;4.53;;
65936;SDS011;52707;52.086;5.418;2023-08-31T04:12:11;7.72;;;4.55;;
65936;SDS011;52707;52.086;5.418;2023-08-31T04:14:37;9.27;;;4.50;;
65936;SDS011;52707;52.086;5.418;2023-08-31T04:17:03;17.70;;;5.13;;
65936;SDS011;52707;52.086;5.418;2023-08-31T04:19:31;7.90;;;4.85;;
65936;SDS011;52707;52.086;5.418;2023-08-31T04:21:57;11.77;;;5.40;;
65936;SDS011;52707;52.086;5.418;2023-08-31T04:24:24;11.73;;;4.97;;
65936;SDS011;52707;52.086;5.418;2023-08-31T04:26:50;8.23;;;5.10;;
65936;SDS011;52707;52.086;5.418;2023-08-31T04:29:17;12.68;;;5.65;;
65936;SDS011;52707;52.086;5.418;2023-08-31T04:31:43;15.23;;;7.45;;
65936;SDS011;52707;52.086;5.418;2023-08-31T04:34:10;10.90;;;6.90;;
65936;SDS011;52707;52.086;5.418;2023-08-31T04:36:36;14.43;;;8.27;;
65936;SDS011;52707;52.086;5.418;2023-08-31T04:39:02;12.07;;;6.60;;
65936;SDS011;52707;52.086;5.418;2023-08-31T04:41:29;17.92;;;8.23;;
65936;SDS011;52707;52.086;5.418;2023-08-31T04:43:55;15.65;;;8.25;;
65936;SDS011;52707;52.086;5.418;2023-08-31T04:46:22;13.80;;;8.68;;
65936;SDS011;52707;52.086;5.418;2023-08-31T04:48:48;16.02;;;9.13;;
65936;SDS011;52707;52.086;5.418;2023-08-31T04:51:27;16.73;;;9.27;;
65936;SDS011;52707;52.086;5.418;2023-08-31T04:53:54;17.70;;;9.25;;
65936;SDS011;52707;52.086;5.418;2023-08-31T04:56:20;15.63;;;9.75;;
65936;SDS011;52707;52.086;5.418;2023-08-31T04:58:47;15.60;;;10.57;;
65936;SDS011;52707;52.086;5.418;2023-08-31T05:01:13;20.83;;;11.00;;
65936;SDS011;52707;52.086;5.418;2023-08-31T05:03:40;17.25;;;10.40;;
65936;SDS011;52707;52.086;5.418;2023-08-31T05:06:06;16.15;;;9.55;;
65936;SDS011;52707;52.086;5.418;2023-08-31T05:08:34;15.95;;;10.55;;
65936;SDS011;52707;52.086;5.418;2023-08-31T05:11:00;18.80;;;10.90;;
65936;SDS011;52707;52.086;5.418;2023-08-31T05:13:26;19.45;;;11.55;;
65936;SDS011;52707;52.086;5.418;2023-08-31T05:15:53;17.35;;;11.93;;
65936;SDS011;52707;52.086;5.418;2023-08-31T05:18:19;23.08;;;13.48;;
65936;SDS011;52707;52.086;5.418;2023-08-31T05:20:46;20.70;;;13.70;;
65936;SDS011;52707;52.086;5.418;2023-08-31T05:23:14;19.85;;;13.07;;
65936;SDS011;52707;52.086;5.418;2023-08-31T05:25:42;18.70;;;12.65;;
65936;SDS011;52707;52.086;5.418;2023-08-31T05:28:08;19.20;;;12.43;;
65936;SDS011;52707;52.086;5.418;2023-08-31T05:30:34;20.42;;;11.70;;
65936;SDS011;52707;52.086;5.418;2023-08-31T05:33:01;13.38;;;11.38;;
65936;SDS011;52707;52.086;5.418;2023-08-31T05:35:27;18.75;;;11.52;;
65936;SDS011;52707;52.086;5.418;2023-08-31T05:37:54;16.90;;;10.98;;
65936;SDS011;52707;52.086;5.418;2023-08-31T05:40:20;13.27;;;10.65;;
65936;SDS011;52707;52.086;5.418;2023-08-31T05:42:47;15.23;;;10.50;;
65936;SDS011;52707;52.086;5.418;2023-08-31T05:45:13;17.38;;;10.77;;
65936;SDS011;52707;52.086;5.418;2023-08-31T05:47:41;17.15;;;10.45;;
65936;SDS011;52707;52.086;5.418;2023-08-31T05:50:07;18.35;;;10.98;;
65936;SDS011;52707;52.086;5.418;2023-08-31T05:52:34;16.73;;;10.60;;
65936;SDS011;52707;52.086;5.418;2023-08-31T05:55:00;16.90;;;11.60;;
65936;SDS011;52707;52.086;5.418;2023-08-31T05:57:26;16.52;;;10.93;;
65936;SDS011;52707;52.086;5.418;2023-08-31T05:59:56;16.17;;;12.07;;
65936;SDS011;52707;52.086;5.418;2023-08-31T06:02:22;20.85;;;12.85;;
65936;SDS011;52707;52.086;5.418;2023-08-31T06:04:48;23.65;;;14.93;;
65936;SDS011;52707;52.086;5.418;2023-08-31T06:07:15;32.17;;;16.58;;
65936;SDS011;52707;52.086;5.418;2023-08-31T06:09:41;19.67;;;14.23;;
65936;SDS011;52707;52.086;5.418;2023-08-31T06:12:07;22.45;;;15.20;;
65936;SDS011;52707;52.086;5.418;2023-08-31T06:14:34;21.50;;;14.30;;
65936;SDS011;52707;52.086;5.418;2023-08-31T06:17:00;20.60;;;14.60;;
65936;SDS011;52707;52.086;5.418;2023-08-31T06:19:26;27.77;;;14.70;;
65936;SDS011;52707;52.086;5.418;2023-08-31T06:21:53;26.77;;;13.18;;
65936;SDS011;52707;52.086;5.418;2023-08-31T06:24:19;20.20;;;12.85;;
65936;SDS011;52707;52.086;5.418;2023-08-31T06:26:45;16.77;;;12.55;;
65936;SDS011;52707;52.086;5.418;2023-08-31T06:29:12;19.10;;;13.18;;
65936;SDS011;52707;52.086;5.418;2023-08-31T06:31:41;21.08;;;13.05;;
65936;SDS011;52707;52.086;5.418;2023-08-31T06:34:08;16.85;;;11.52;;
65936;SDS011;52707;52.086;5.418;2023-08-31T06:36:34;14.98;;;10.45;;
65936;SDS011;52707;52.086;5.418;2023-08-31T06:39:00;12.60;;;10.38;;
65936;SDS011;52707;52.086;5.418;2023-08-31T06:41:27;16.17;;;10.25;;
65936;SDS011;52707;52.086;5.418;2023-08-31T06:43:53;16.48;;;10.65;;
65936;SDS011;52707;52.086;5.418;2023-08-31T06:46:19;16.08;;;9.77;;
65936;SDS011;52707;52.086;5.418;2023-08-31T06:48:50;16.83;;;8.15;;
65936;SDS011;52707;52.086;5.418;2023-08-31T06:51:16;11.98;;;7.20;;
65936;SDS011;52707;52.086;5.418;2023-08-31T06:53:43;15.65;;;6.85;;
65936;SDS011;52707;52.086;5.418;2023-08-31T06:56:10;16.15;;;7.00;;
65936;SDS011;52707;52.086;5.418;2023-08-31T06:58:36;11.75;;;6.93;;
65936;SDS011;52707;52.086;5.418;2023-08-31T07:01:05;16.05;;;7.68;;
65936;SDS011;52707;52.086;5.418;2023-08-31T07:03:32;15.93;;;7.88;;
65936;SDS011;52707;52.086;5.418;2023-08-31T07:05:59;14.68;;;7.50;;
65936;SDS011;52707;52.086;5.418;2023-08-31T07:08:25;13.90;;;8.23;;
65936;SDS011;52707;52.086;5.418;2023-08-31T07:10:51;16.15;;;8.27;;
65936;SDS011;52707;52.086;5.418;2023-08-31T07:13:18;11.68;;;8.15;;
65936;SDS011;52707;52.086;5.418;2023-08-31T07:15:44;12.65;;;8.30;;
65936;SDS011;52707;52.086;5.418;2023-08-31T07:18:11;10.43;;;7.68;;
65936;SDS011;52707;52.086;5.418;2023-08-31T07:20:37;15.57;;;8.15;;
65936;SDS011;52707;52.086;5.418;2023-08-31T07:23:03;15.05;;;7.57;;
65936;SDS011;52707;52.086;5.418;2023-08-31T07:25:30;16.30;;;7.88;;
65936;SDS011;52707;52.086;5.418;2023-08-31T07:27:56;11.10;;;7.38;;
65936;SDS011;52707;52.086;5.418;2023-08-31T07:30:23;13.32;;;7.05;;
65936;SDS011;52707;52.086;5.418;2023-08-31T07:32:49;14.75;;;8.07;;
65936;SDS011;52707;52.086;5.418;2023-08-31T07:35:15;8.48;;;7.55;;
65936;SDS011;52707;52.086;5.418;2023-08-31T07:37:42;16.67;;;8.00;;
65936;SDS011;52707;52.086;5.418;2023-08-31T07:40:08;10.45;;;7.45;;
65936;SDS011;52707;52.086;5.418;2023-08-31T07:42:36;13.55;;;7.15;;
65936;SDS011;52707;52.086;5.418;2023-08-31T07:45:02;12.80;;;6.60;;
65936;SDS011;52707;52.086;5.418;2023-08-31T07:47:29;12.05;;;6.50;;
65936;SDS011;52707;52.086;5.418;2023-08-31T07:49:57;10.50;;;7.07;;
65936;SDS011;52707;52.086;5.418;2023-08-31T07:52:23;12.32;;;7.70;;
65936;SDS011;52707;52.086;5.418;2023-08-31T07:54:50;13.10;;;6.57;;
65936;SDS011;52707;52.086;5.418;2023-08-31T07:57:16;13.82;;;6.95;;
65936;SDS011;52707;52.086;5.418;2023-08-31T07:59:42;12.68;;;6.90;;
65936;SDS011;52707;52.086;5.418;2023-08-31T08:02:09;8.48;;;7.18;;
65936;SDS011;52707;52.086;5.418;2023-08-31T08:04:35;9.15;;;6.50;;
65936;SDS011;52707;52.086;5.418;2023-08-31T08:07:02;9.63;;;6.68;;
65936;SDS011;52707;52.086;5.418;2023-08-31T08:09:29;11.63;;;6.75;;
65936;SDS011;52707;52.086;5.418;2023-08-31T08:11:58;18.70;;;7.85;;
65936;SDS011;52707;52.086;5.418;2023-08-31T08:14:25;12.45;;;7.97;;
65936;SDS011;52707;52.086;5.418;2023-08-31T08:16:51;17.92;;;8.05;;
65936;SDS011;52707;52.086;5.418;2023-08-31T08:19:22;16.27;;;7.38;;
65936;SDS011;52707;52.086;5.418;2023-08-31T08:21:52;10.95;;;7.93;;
65936;SDS011;52707;52.086;5.418;2023-08-31T08:24:18;17.35;;;8.18;;
65936;SDS011;52707;52.086;5.418;2023-08-31T08:26:45;13.43;;;8.40;;
65936;SDS011;52707;52.086;5.418;2023-08-31T08:29:11;13.88;;;8.70;;
65936;SDS011;52707;52.086;5.418;2023-08-31T08:31:38;18.60;;;8.77;;
65936;SDS011;52707;52.086;5.418;2023-08-31T08:34:04;13.27;;;7.85;;
65936;SDS011;52707;52.086;5.418;2023-08-31T08:36:31;20.33;;;9.48;;
65936;SDS011;52707;52.086;5.418;2023-08-31T08:38:58;12.90;;;8.43;;
65936;SDS011;52707;52.086;5.418;2023-08-31T08:41:24;19.20;;;7.80;;
65936;SDS011;52707;52.086;5.418;2023-08-31T08:43:52;14.57;;;7.95;;
65936;SDS011;52707;52.086;5.418;2023-08-31T08:46:19;20.13;;;6.32;;
65936;SDS011;52707;52.086;5.418;2023-08-31T08:48:46;10.15;;;6.82;;
65936;SDS011;52707;52.086;5.418;2023-08-31T08:51:13;17.80;;;6.57;;
65936;SDS011;52707;52.086;5.418;2023-08-31T08:53:42;14.50;;;6.35;;
65936;SDS011;52707;52.086;5.418;2023-08-31T08:56:09;9.07;;;6.20;;
65936;SDS011;52707;52.086;5.418;2023-08-31T08:58:35;11.82;;;6.15;;
65936;SDS011;52707;52.086;5.418;2023-08-31T09:01:02;13.75;;;6.05;;
65936;SDS011;52707;52.086;5.418;2023-08-31T09:03:30;10.35;;;5.65;;
65936;SDS011;52707;52.086;5.418;2023-08-31T09:05:58;11.52;;;5.35;;
65936;SDS011;52707;52.086;5.418;2023-08-31T09:08:25;11.32;;;5.18;;
65936;SDS011;52707;52.086;5.418;2023-08-31T09:10:52;10.35;;;3.80;;
65936;SDS011;52707;52.086;5.418;2023-08-31T09:13:21;9.77;;;4.25;;
65936;SDS011;52707;52.086;5.418;2023-08-31T09:15:51;6.35;;;4.32;;
65936;SDS011;52707;52.086;5.418;2023-08-31T09:20:50;8.45;;;4.10;;
65936;SDS011;52707;52.086;5.418;2023-08-31T09:23:18;8.35;;;4.20;;
65936;SDS011;52707;52.086;5.418;2023-08-31T09:25:48;6.63;;;4.15;;
65936;SDS011;52707;52.086;5.418;2023-08-31T09:30:41;9.45;;;3.15;;
65936;SDS011;52707;52.086;5.418;2023-08-31T09:33:09;7.25;;;2.85;;
65936;SDS011;52707;52.086;5.418;2023-08-31T09:35:40;6.80;;;2.80;;
65936;SDS011;52707;52.086;5.418;2023-08-31T09:38:09;7.53;;;3.10;;
65936;SDS011;52707;52.086;5.418;2023-08-31T09:40:36;5.05;;;1.90;;
65936;SDS011;52707;52.086;5.418;2023-08-31T09:43:03;9.25;;;2.22;;
65936;SDS011;52707;52.086;5.418;2023-08-31T09:45:30;7.72;;;2.03;;
65936;SDS011;52707;52.086;5.418;2023-08-31T09:48:03;8.48;;;1.70;;
65936;SDS011;52707;52.086;5.418;2023-08-31T09:50:31;4.38;;;1.88;;
65936;SDS011;52707;52.086;5.418;2023-08-31T09:53:03;5.75;;;1.52;;
65936;SDS011;52707;52.086;5.418;2023-08-31T09:55:33;6.30;;;1.98;;
65936;SDS011;52707;52.086;5.418;2023-08-31T09:58:00;4.97;;;1.67;;
65936;SDS011;52707;52.086;5.418;2023-08-31T10:00:40;6.50;;;1.67;;
65936;SDS011;52707;52.086;5.418;2023-08-31T10:03:07;8.02;;;1.60;;
65936;SDS011;52707;52.086;5.418;2023-08-31T10:05:35;9.13;;;1.85;;
65936;SDS011;52707;52.086;5.418;2023-08-31T10:08:01;4.35;;;1.05;;
65936;SDS011;52707;52.086;5.418;2023-08-31T10:10:28;7.90;;;1.45;;
65936;SDS011;52707;52.086;5.418;2023-08-31T10:12:55;4.95;;;1.40;;
65936;SDS011;52707;52.086;5.418;2023-08-31T10:15:21;9.45;;;1.35;;
65936;SDS011;52707;52.086;5.418;2023-08-31T10:17:48;5.32;;;1.25;;
65936;SDS011;52707;52.086;5.418;2023-08-31T10:20:15;4.93;;;1.10;;
65936;SDS011;52707;52.086;5.418;2023-08-31T10:22:42;6.68;;;1.38;;
65936;SDS011;52707;52.086;5.418;2023-08-31T10:25:09;3.38;;;1.17;;
65936;SDS011;52707;52.086;5.418;2023-08-31T10:27:36;2.85;;;1.05;;
65936;SDS011;52707;52.086;5.418;2023-08-31T10:35:40;5.63;;;1.20;;
65936;SDS011;52707;52.086;5.418;2023-08-31T10:38:17;3.17;;;1.00;;
65936;SDS011;52707;52.086;5.418;2023-08-31T10:40:58;2.60;;;1.00;;
65936;SDS011;52707;52.086;5.418;2023-08-31T10:43:25;3.72;;;1.08;;
65936;SDS011;52707;52.086;5.418;2023-08-31T10:46:05;3.08;;;0.95;;
65936;SDS011;52707;52.086;5.418;2023-08-31T10:48:50;4.32;;;1.15;;
65936;SDS011;52707;52.086;5.418;2023-08-31T10:51:17;5.30;;;1.10;;
65936;SDS011;52707;52.086;5.418;2023-08-31T10:53:45;5.78;;;1.02;;
65936;SDS011;52707;52.086;5.418;2023-08-31T10:56:11;1.02;;;0.68;;
65936;SDS011;52707;52.086;5.418;2023-08-31T10:58:38;2.58;;;0.90;;
65936;SDS011;52707;52.086;5.418;2023-08-31T11:01:04;3.10;;;1.20;;
65936;SDS011;52707;52.086;5.418;2023-08-31T11:03:30;5.45;;;1.30;;
65936;SDS011;52707;52.086;5.418;2023-08-31T11:05:57;4.85;;;0.95;;
65936;SDS011;52707;52.086;5.418;2023-08-31T11:08:24;2.15;;;0.82;;
65936;SDS011;52707;52.086;5.418;2023-08-31T11:10:51;7.25;;;1.10;;
65936;SDS011;52707;52.086;5.418;2023-08-31T11:13:20;3.17;;;0.80;;
65936;SDS011;52707;52.086;5.418;2023-08-31T11:15:47;4.68;;;0.85;;
65936;SDS011;52707;52.086;5.418;2023-08-31T11:18:13;4.97;;;1.10;;
65936;SDS011;52707;52.086;5.418;2023-08-31T11:20:43;3.65;;;0.98;;
65936;SDS011;52707;52.086;5.418;2023-08-31T11:23:10;9.65;;;1.33;;
65936;SDS011;52707;52.086;5.418;2023-08-31T11:25:37;5.32;;;1.00;;
65936;SDS011;52707;52.086;5.418;2023-08-31T11:28:05;2.45;;;0.70;;
65936;SDS011;52707;52.086;5.418;2023-08-31T11:30:32;2.65;;;0.85;;
65936;SDS011;52707;52.086;5.418;2023-08-31T11:33:05;1.02;;;0.80;;
65936;SDS011;52707;52.086;5.418;2023-08-31T11:35:33;1.25;;;0.52;;
65936;SDS011;52707;52.086;5.418;2023-08-31T11:38:02;4.05;;;0.88;;
65936;SDS011;52707;52.086;5.418;2023-08-31T11:40:29;2.17;;;1.05;;
65936;SDS011;52707;52.086;5.418;2023-08-31T11:42:56;4.10;;;0.80;;
65936;SDS011;52707;52.086;5.418;2023-08-31T11:45:23;4.28;;;0.70;;
65936;SDS011;52707;52.086;5.418;2023-08-31T11:47:50;2.85;;;0.77;;
65936;SDS011;52707;52.086;5.418;2023-08-31T11:50:17;1.45;;;0.60;;
65936;SDS011;52707;52.086;5.418;2023-08-31T11:52:44;1.55;;;0.77;;
65936;SDS011;52707;52.086;5.418;2023-08-31T11:55:14;2.22;;;0.75;;
65936;SDS011;52707;52.086;5.418;2023-08-31T12:00:07;1.63;;;0.75;;
65936;SDS011;52707;52.086;5.418;2023-08-31T12:02:34;2.50;;;1.00;;
65936;SDS011;52707;52.086;5.418;2023-08-31T12:05:01;5.05;;;0.75;;
65936;SDS011;52707;52.086;5.418;2023-08-31T12:07:27;3.53;;;0.95;;
65936;SDS011;52707;52.086;5.418;2023-08-31T12:09:53;3.97;;;0.77;;
65936;SDS011;52707;52.086;5.418;2023-08-31T12:12:20;4.13;;;0.90;;
65936;SDS011;52707;52.086;5.418;2023-08-31T12:14:47;3.85;;;1.00;;
65936;SDS011;52707;52.086;5.418;2023-08-31T12:17:13;3.60;;;0.90;;
65936;SDS011;52707;52.086;5.418;2023-08-31T12:19:44;3.65;;;1.13;;
65936;SDS011;52707;52.086;5.418;2023-08-31T12:22:11;1.25;;;0.70;;
65936;SDS011;52707;52.086;5.418;2023-08-31T12:24:40;3.00;;;1.07;;
65936;SDS011;52707;52.086;5.418;2023-08-31T12:27:07;1.85;;;0.65;;
65936;SDS011;52707;52.086;5.418;2023-08-31T12:29:34;2.80;;;0.98;;
65936;SDS011;52707;52.086;5.418;2023-08-31T12:32:01;3.67;;;0.90;;
65936;SDS011;52707;52.086;5.418;2023-08-31T12:34:28;2.70;;;0.90;;
65936;SDS011;52707;52.086;5.418;2023-08-31T12:36:55;2.17;;;0.70;;
65936;SDS011;52707;52.086;5.418;2023-08-31T12:39:26;1.70;;;0.70;;
65936;SDS011;52707;52.086;5.418;2023-08-31T12:41:52;1.50;;;0.80;;
65936;SDS011;52707;52.086;5.418;2023-08-31T12:44:19;4.53;;;0.90;;
65936;SDS011;52707;52.086;5.418;2023-08-31T12:46:46;1.65;;;0.70;;
65936;SDS011;52707;52.086;5.418;2023-08-31T12:49:12;4.65;;;0.95;;
65936;SDS011;52707;52.086;5.418;2023-08-31T12:51:39;4.00;;;0.90;;
65936;SDS011;52707;52.086;5.418;2023-08-31T12:54:05;3.08;;;1.00;;
65936;SDS011;52707;52.086;5.418;2023-08-31T12:56:31;3.42;;;1.00;;
65936;SDS011;52707;52.086;5.418;2023-08-31T12:58:58;4.13;;;1.15;;
65936;SDS011;52707;52.086;5.418;2023-08-31T13:01:24;1.25;;;0.70;;
65936;SDS011;52707;52.086;5.418;2023-08-31T13:03:51;2.25;;;0.95;;
65936;SDS011;52707;52.086;5.418;2023-08-31T13:06:18;2.92;;;1.08;;
65936;SDS011;52707;52.086;5.418;2023-08-31T13:08:45;3.67;;;1.10;;
65936;SDS011;52707;52.086;5.418;2023-08-31T13:11:11;2.75;;;1.10;;
65936;SDS011;52707;52.086;5.418;2023-08-31T13:13:41;1.40;;;0.70;;
65936;SDS011;52707;52.086;5.418;2023-08-31T13:16:07;2.58;;;0.90;;
65936;SDS011;52707;52.086;5.418;2023-08-31T13:18:34;5.88;;;0.93;;
65936;SDS011;52707;52.086;5.418;2023-08-31T13:21:00;1.60;;;0.90;;
65936;SDS011;52707;52.086;5.418;2023-08-31T13:23:28;4.65;;;0.70;;
65936;SDS011;52707;52.086;5.418;2023-08-31T13:25:54;2.95;;;1.10;;
65936;SDS011;52707;52.086;5.418;2023-08-31T13:28:22;2.83;;;1.10;;
65936;SDS011;52707;52.086;5.418;2023-08-31T13:30:48;3.40;;;1.08;;
65936;SDS011;52707;52.086;5.418;2023-08-31T13:33:15;10.20;;;1.33;;
65936;SDS011;52707;52.086;5.418;2023-08-31T13:35:41;2.42;;;0.85;;
65936;SDS011;52707;52.086;5.418;2023-08-31T13:38:08;3.55;;;0.90;;
65936;SDS011;52707;52.086;5.418;2023-08-31T13:40:34;2.58;;;1.02;;
65936;SDS011;52707;52.086;5.418;2023-08-31T13:43:01;2.85;;;1.00;;
65936;SDS011;52707;52.086;5.418;2023-08-31T13:45:30;2.30;;;0.77;;
65936;SDS011;52707;52.086;5.418;2023-08-31T13:47:57;2.25;;;0.90;;
65936;SDS011;52707;52.086;5.418;2023-08-31T13:50:25;2.67;;;0.90;;
65936;SDS011;52707;52.086;5.418;2023-08-31T13:52:52;1.52;;;0.98;;
65936;SDS011;52707;52.086;5.418;2023-08-31T13:55:18;6.18;;;1.35;;
65936;SDS011;52707;52.086;5.418;2023-08-31T13:57:45;4.05;;;1.00;;
65936;SDS011;52707;52.086;5.418;2023-08-31T14:00:11;4.68;;;1.00;;
65936;SDS011;52707;52.086;5.418;2023-08-31T14:02:38;1.75;;;0.88;;
65936;SDS011;52707;52.086;5.418;2023-08-31T14:05:05;2.20;;;1.15;;
65936;SDS011;52707;52.086;5.418;2023-08-31T14:07:37;2.03;;;0.80;;
65936;SDS011;52707;52.086;5.418;2023-08-31T14:10:04;2.88;;;1.00;;
65936;SDS011;52707;52.086;5.418;2023-08-31T14:12:33;2.08;;;0.80;;
65936;SDS011;52707;52.086;5.418;2023-08-31T14:15:00;1.55;;;0.80;;
65936;SDS011;52707;52.086;5.418;2023-08-31T14:17:30;4.35;;;0.90;;
65936;SDS011;52707;52.086;5.418;2023-08-31T14:20:00;5.13;;;1.15;;
65936;SDS011;52707;52.086;5.418;2023-08-31T14:22:32;3.20;;;1.02;;
65936;SDS011;52707;52.086;5.418;2023-08-31T14:24:59;1.45;;;0.95;;
65936;SDS011;52707;52.086;5.418;2023-08-31T14:27:26;2.20;;;1.20;;
65936;SDS011;52707;52.086;5.418;2023-08-31T14:29:53;4.68;;;0.93;;
65936;SDS011;52707;52.086;5.418;2023-08-31T14:32:19;1.88;;;0.85;;
65936;SDS011;52707;52.086;5.418;2023-08-31T14:34:45;3.08;;;0.82;;
65936;SDS011;52707;52.086;5.418;2023-08-31T14:37:13;3.15;;;1.23;;
65936;SDS011;52707;52.086;5.418;2023-08-31T14:39:39;3.78;;;1.05;;
65936;SDS011;52707;52.086;5.418;2023-08-31T14:42:05;2.45;;;1.05;;
65936;SDS011;52707;52.086;5.418;2023-08-31T14:44:32;4.47;;;0.88;;
65936;SDS011;52707;52.086;5.418;2023-08-31T14:46:58;3.92;;;1.10;;
65936;SDS011;52707;52.086;5.418;2023-08-31T14:49:24;3.72;;;1.10;;
65936;SDS011;52707;52.086;5.418;2023-08-31T14:51:51;4.85;;;1.25;;
65936;SDS011;52707;52.086;5.418;2023-08-31T14:54:18;2.15;;;1.02;;
65936;SDS011;52707;52.086;5.418;2023-08-31T14:56:44;3.55;;;1.10;;